Faneromeni — SVKG — position and weather

sailwx.info

Track history (hours):
 
Tides and Currents Weather Stations Pressure Air Temp Water Temp Dewpoint Dewpoint Depression Visibility Wind Speed Wind Dir Waves Ship Positions

Faneromeni

Last reported at 2014-Aug-21 17:33 UTC. Time now 2014-Aug-22 15:40 UTC.
Position N 35°55' W 006°29'.

Length 230 m; draft 7.6 m.

Type: Cargo ship. MMSI: 240576000.

Date/timePositionNaut miles runAvg speedWind from/ knotsBaromVisibWave heightAir tempDewpointWater temp
2014-Aug-21 17:33N 35°55' W 006°29'48 2.8
2014-Aug-21 00:33N 35°59' W 005°30'7 7.1
2014-Aug-20 23:33N 36°01' W 005°21'6 6.3
2014-Aug-20 22:33N 36°02' W 005°13'226 5.4
2014-Aug-19 04:28N 36°39' W 000°36'9 4.8
2014-Aug-19 02:32N 36°40' W 000°25'18 4.1
2014-Aug-18 22:12N 36°43' W 000°03'15 5.3
2014-Aug-18 19:25N 36°45' E 000°15'6 6.2
2014-Aug-18 18:31N 36°46' E 000°22'7 6.4
2014-Aug-18 17:29N 36°48' E 000°30'6 6.4
2014-Aug-18 16:33N 36°48' E 000°38'7 6.5
2014-Aug-18 15:33N 36°49' E 000°46'15 6.3
2014-Aug-18 13:10N 36°52' E 001°04'4 6.4
2014-Aug-18 12:33N 36°53' E 001°09'7 6.4
2014-Aug-18 11:31N 36°54' E 001°17'6 6.4
2014-Aug-18 10:33N 36°55' E 001°25'13 6.3
2014-Aug-18 08:32N 36°57' E 001°41'7 6.3
2014-Aug-18 07:26N 36°58' E 001°49'15 6.4
2014-Aug-18 05:08N 37°00' E 002°07'6 5.8
2014-Aug-18 04:10N 37°02' E 002°14'4 6.5
2014-Aug-18 03:33N 37°02' E 002°19'6 6.2
2014-Aug-18 02:33N 37°03' E 002°27'7 6.7
2014-Aug-18 01:27N 37°04' E 002°36'322 6.5
2014-Aug-16 00:05N 37°42' E 009°19'21 4.5
2014-Aug-15 19:33N 37°40' E 009°45'4 4.2
2014-Aug-15 18:33N 37°40' E 009°50'28 4.4
2014-Aug-15 12:08N 37°36' E 010°26'3 4.9
2014-Aug-15 11:33N 37°36' E 010°29'6 4.7
2014-Aug-15 10:21N 37°34' E 010°36'4 4.3
2014-Aug-15 09:20N 37°33' E 010°41'5 4.4
2014-Aug-15 08:14N 37°32' E 010°47'85 4.8
2014-Aug-14 14:33N 37°07' E 012°29'5 4.7
2014-Aug-14 13:33N 37°05' E 012°34'5 4.7
2014-Aug-14 12:33N 37°03' E 012°40'5 5.0
2014-Aug-14 11:33N 37°01' E 012°46'5 5.3
2014-Aug-14 10:33N 36°59' E 012°52'5 5.3
2014-Aug-14 09:33N 36°58' E 012°58'5 5.5
2014-Aug-14 08:33N 36°55' E 013°04'  
Track history (hours):
 
Tides and Currents Weather Stations Pressure Air Temp Water Temp Dewpoint Dewpoint Depression Visibility Wind Speed Wind Dir Waves Ship Positions

Faneromeni

Last reported at 2014-Aug-21 17:33 UTC. Time now 2014-Aug-22 15:40 UTC.
Position N 35°55' W 006°29'.

Length 230 m; draft 7.6 m.

Type: Cargo ship. MMSI: 240576000.

Date/timePositionNaut miles runAvg speedWind from/ knotsBaromVisibWave heightAir tempDewpointWater temp
2014-Aug-21 17:33N 35°55' W 006°29'48 2.8
2014-Aug-21 00:33N 35°59' W 005°30'7 7.1
2014-Aug-20 23:33N 36°01' W 005°21'6 6.3
2014-Aug-20 22:33N 36°02' W 005°13'226 5.4
2014-Aug-19 04:28N 36°39' W 000°36'9 4.8
2014-Aug-19 02:32N 36°40' W 000°25'18 4.1
2014-Aug-18 22:12N 36°43' W 000°03'15 5.3
2014-Aug-18 19:25N 36°45' E 000°15'6 6.2
2014-Aug-18 18:31N 36°46' E 000°22'7 6.4
2014-Aug-18 17:29N 36°48' E 000°30'6 6.4
2014-Aug-18 16:33N 36°48' E 000°38'7 6.5
2014-Aug-18 15:33N 36°49' E 000°46'15 6.3
2014-Aug-18 13:10N 36°52' E 001°04'4 6.4
2014-Aug-18 12:33N 36°53' E 001°09'7 6.4
2014-Aug-18 11:31N 36°54' E 001°17'6 6.4
2014-Aug-18 10:33N 36°55' E 001°25'13 6.3
2014-Aug-18 08:32N 36°57' E 001°41'7 6.3
2014-Aug-18 07:26N 36°58' E 001°49'15 6.4
2014-Aug-18 05:08N 37°00' E 002°07'6 5.8
2014-Aug-18 04:10N 37°02' E 002°14'4 6.5
2014-Aug-18 03:33N 37°02' E 002°19'6 6.2
2014-Aug-18 02:33N 37°03' E 002°27'7 6.7
2014-Aug-18 01:27N 37°04' E 002°36'322 6.5
2014-Aug-16 00:05N 37°42' E 009°19'21 4.5
2014-Aug-15 19:33N 37°40' E 009°45'4 4.2
2014-Aug-15 18:33N 37°40' E 009°50'28 4.4
2014-Aug-15 12:08N 37°36' E 010°26'3 4.9
2014-Aug-15 11:33N 37°36' E 010°29'6 4.7
2014-Aug-15 10:21N 37°34' E 010°36'4 4.3
2014-Aug-15 09:20N 37°33' E 010°41'5 4.4
2014-Aug-15 08:14N 37°32' E 010°47'85 4.8
2014-Aug-14 14:33N 37°07' E 012°29'5 4.7
2014-Aug-14 13:33N 37°05' E 012°34'5 4.7
2014-Aug-14 12:33N 37°03' E 012°40'5 5.0
2014-Aug-14 11:33N 37°01' E 012°46'5 5.3
2014-Aug-14 10:33N 36°59' E 012°52'5 5.3
2014-Aug-14 09:33N 36°58' E 012°58'5 5.5
2014-Aug-14 08:33N 36°55' E 013°04'  

Dump ship's entire track history